createdAt,value
2019-05-16T00:02:25.737Z,99854.00
2019-05-16T00:04:59.000Z,99844.42
2019-05-16T00:07:29.064Z,99847.50
2019-05-16T00:09:59.787Z,99848.74
2019-05-16T00:12:30.697Z,99850.92
2019-05-16T00:15:01.630Z,99846.59
2019-05-16T00:17:33.489Z,99844.88
2019-05-16T00:20:04.532Z,99840.11
2019-05-16T00:22:35.547Z,99838.30
2019-05-16T00:25:08.492Z,99832.67
2019-05-16T00:27:38.900Z,99826.18
2019-05-16T00:30:10.007Z,99833.98
2019-05-16T00:32:41.798Z,99833.61
2019-05-16T00:35:12.687Z,99835.30
2019-05-16T00:37:43.527Z,99838.30
2019-05-16T00:40:14.517Z,99835.30
2019-05-16T00:42:48.897Z,99830.05
2019-05-16T00:45:19.357Z,99827.34
2019-05-16T00:47:50.468Z,99829.89
2019-05-16T00:50:21.339Z,99825.02
2019-05-16T00:52:52.385Z,99825.47
2019-05-16T00:55:24.568Z,99826.78
2019-05-16T00:57:55.712Z,99826.33
2019-05-16T01:00:38.707Z,99819.75
2019-05-16T01:03:09.638Z,99824.08
2019-05-16T01:05:40.589Z,99820.99
2019-05-16T01:08:13.578Z,99826.25
2019-05-16T01:10:45.118Z,99824.45
2019-05-16T01:13:18.388Z,99814.05
2019-05-16T01:15:48.880Z,99814.05
2019-05-16T01:18:19.747Z,99824.93
2019-05-16T01:20:50.715Z,99824.45
2019-05-16T01:23:21.917Z,99820.43
2019-05-16T01:25:52.937Z,99817.72
2019-05-16T01:28:24.998Z,99812.02
2019-05-16T01:30:57.845Z,99812.84
2019-05-16T01:33:28.333Z,99808.52
2019-05-16T01:35:59.273Z,99807.21
2019-05-16T01:38:29.977Z,99805.52
2019-05-16T01:41:00.789Z,99807.77
2019-05-16T01:43:31.757Z,99807.48
2019-05-16T01:46:02.937Z,99796.25
2019-05-16T01:48:34.387Z,99799.59
2019-05-16T01:51:07.608Z,99797.98
2019-05-16T01:53:39.512Z,99798.44
2019-05-16T01:56:11.637Z,99804.63
2019-05-16T01:58:42.697Z,99801.14
2019-05-16T02:01:15.882Z,99803.92
2019-05-16T02:03:48.100Z,99804.86
2019-05-16T02:06:19.345Z,99804.11
2019-05-16T02:08:50.333Z,99798.48
2019-05-16T02:11:21.327Z,99797.23
2019-05-16T02:13:52.188Z,99793.83
2019-05-16T02:16:23.097Z,99790.38
2019-05-16T02:18:54.307Z,99790.38
2019-05-16T02:21:25.147Z,99788.69
2019-05-16T02:23:58.655Z,99789.52
2019-05-16T02:26:28.588Z,99797.88
2019-05-16T02:29:00.827Z,99795.25
2019-05-16T02:31:32.468Z,99792.14
2019-05-16T02:34:04.759Z,99796.00
2019-05-16T02:36:36.067Z,99791.69
2019-05-16T02:39:10.923Z,99795.63
2019-05-16T02:41:42.585Z,99798.25
2019-05-16T02:44:13.037Z,99796.94
2019-05-16T02:46:44.118Z,99797.77
2019-05-16T02:49:15.228Z,99795.63
2019-05-16T02:51:46.448Z,99793.94
2019-05-16T02:54:21.049Z,99793.00
2019-05-16T02:56:50.640Z,99797.47
2019-05-16T02:59:21.748Z,99796.16
2019-05-16T03:01:52.888Z,99790.08
2019-05-16T03:04:24.037Z,99786.96
2019-05-16T03:06:55.559Z,99798.33
2019-05-16T03:09:26.848Z,99797.88
2019-05-16T03:12:01.283Z,99793.83
2019-05-16T03:14:32.459Z,99788.69
2019-05-16T03:17:05.358Z,99791.31
2019-05-16T03:19:37.730Z,99785.65
2019-05-16T03:22:11.455Z,99790.00
2019-05-16T03:24:42.274Z,99793.45
2019-05-16T03:27:14.336Z,99790.45
2019-05-16T03:29:45.318Z,99789.33
2019-05-16T03:32:16.268Z,99794.09
2019-05-16T03:34:47.509Z,99792.97
2019-05-16T03:37:24.353Z,99797.03
2019-05-16T03:39:51.562Z,99792.78
2019-05-16T03:42:22.808Z,99800.03
2019-05-16T03:44:54.117Z,99801.75
2019-05-16T03:47:25.353Z,99804.84
2019-05-16T03:49:56.487Z,99811.02
2019-05-16T03:52:30.782Z,99815.91
2019-05-16T03:55:02.046Z,99819.84
2019-05-16T03:57:33.100Z,99815.98
2019-05-16T04:00:04.018Z,99816.80
2019-05-16T04:02:35.581Z,99817.11
2019-05-16T04:05:06.753Z,99823.52
2019-05-16T04:07:41.057Z,99818.20
2019-05-16T04:10:11.587Z,99811.63
2019-05-16T04:12:42.608Z,99805.81
2019-05-16T04:15:13.651Z,99809.15
2019-05-16T04:17:44.679Z,99811.66
2019-05-16T04:20:17.050Z,99823.37
2019-05-16T04:22:51.060Z,99824.61
2019-05-16T04:25:21.704Z,99827.08
2019-05-16T04:27:53.221Z,99820.97
2019-05-16T04:30:24.221Z,99820.41
2019-05-16T04:32:55.617Z,99818.48
2019-05-16T04:35:26.827Z,99810.70
2019-05-16T04:38:01.600Z,99820.20
2019-05-16T04:40:31.264Z,99819.04
2019-05-16T04:43:02.369Z,99822.34
2019-05-16T04:45:33.419Z,99820.30
2019-05-16T04:48:04.497Z,99828.97
2019-05-16T04:50:35.583Z,99816.28
2019-05-16T04:53:06.808Z,99822.77
2019-05-16T04:55:37.797Z,99817.14
2019-05-16T04:58:10.650Z,99817.22
2019-05-16T05:00:42.104Z,99817.22
2019-05-16T05:03:14.707Z,99819.84
2019-05-16T05:05:45.676Z,99827.58
2019-05-16T05:08:16.860Z,99832.65
2019-05-16T05:10:50.967Z,99825.57
2019-05-16T05:13:22.089Z,99822.84
2019-05-16T05:15:53.528Z,99828.10
2019-05-16T05:18:24.387Z,99831.34
2019-05-16T05:20:56.017Z,99837.97
2019-05-16T05:23:29.945Z,99845.96
2019-05-16T05:26:00.438Z,99846.66
2019-05-16T05:28:31.787Z,99855.80
2019-05-16T05:31:02.785Z,99869.09
2019-05-16T05:33:33.807Z,99862.52
2019-05-16T05:36:04.779Z,99863.47
2019-05-16T05:38:36.117Z,99869.48
2019-05-16T05:41:07.047Z,99866.52
2019-05-16T05:43:39.767Z,99867.10
2019-05-16T05:46:11.577Z,99867.84
2019-05-16T05:48:42.467Z,99872.00
2019-05-16T05:51:13.569Z,99877.75
2019-05-16T05:53:44.640Z,99880.27
2019-05-16T05:56:15.627Z,99881.20
2019-05-16T05:58:46.528Z,99886.47
2019-05-16T06:01:20.253Z,99890.62
2019-05-16T06:03:50.488Z,99891.58
2019-05-16T06:06:21.927Z,99893.94
2019-05-16T06:08:53.057Z,99900.88
2019-05-16T06:11:24.077Z,99900.60
2019-05-16T06:13:54.987Z,99901.21
2019-05-16T06:16:25.758Z,99901.50
2019-05-16T06:18:56.969Z,99908.09
2019-05-16T06:21:33.046Z,99900.35
2019-05-16T06:24:00.567Z,99911.88
2019-05-16T06:26:31.535Z,99902.73
2019-05-16T06:29:02.747Z,99906.20
2019-05-16T06:31:33.660Z,99909.41
2019-05-16T11:23:23.015Z,100084.39
2019-05-16T11:25:55.350Z,100088.86
2019-05-16T11:28:26.654Z,100088.03
2019-05-16T11:31:03.214Z,100085.78
2019-05-16T11:33:33.248Z,100086.31
2019-05-16T11:36:07.424Z,100089.85
2019-05-16T11:38:38.500Z,100083.39
2019-05-16T11:41:10.890Z,100081.50
2019-05-16T11:43:43.099Z,100076.90
2019-05-16T11:46:15.191Z,100073.78
2019-05-16T11:48:48.872Z,100074.95
2019-05-16T11:51:21.539Z,100075.07
2019-05-16T11:53:52.817Z,100071.38
2019-05-16T11:56:24.749Z,100073.36
2019-05-16T11:58:56.980Z,100081.56
2019-05-16T12:01:29.289Z,100074.03
2019-05-16T12:04:01.610Z,100074.75
2019-05-16T12:06:33.863Z,100077.91
2019-05-16T12:09:06.987Z,100070.09
2019-05-16T12:11:39.109Z,100067.72
2019-05-16T12:14:11.892Z,100072.86
2019-05-16T12:16:44.238Z,100068.44
2019-05-16T12:19:18.158Z,100063.79
2019-05-16T12:21:50.489Z,100061.13
2019-05-16T12:24:33.102Z,100055.73
2019-05-16T12:26:56.929Z,100055.23
2019-05-16T12:29:29.379Z,100056.06
2019-05-16T12:32:02.933Z,100058.24
2019-05-16T12:34:33.132Z,100054.39
2019-05-16T12:37:07.394Z,100050.86
2019-05-16T12:39:39.189Z,100048.27
2019-05-16T12:42:11.580Z,100055.25
2019-05-16T12:44:43.999Z,100050.34
2019-05-16T12:47:16.501Z,100057.36
2019-05-16T12:49:48.968Z,100061.14
2019-05-16T12:52:22.471Z,100058.98
2019-05-16T12:54:53.447Z,100058.34
2019-05-16T12:57:27.612Z,100061.33
2019-05-16T12:59:59.425Z,100059.62
2019-05-16T13:02:32.739Z,100063.66
2019-05-16T13:05:05.443Z,100062.16
2019-05-16T13:07:37.922Z,100063.73
2019-05-16T13:10:11.079Z,100057.29
2019-05-16T13:12:43.291Z,100057.83
2019-05-16T13:15:14.812Z,100059.90
2019-05-16T13:17:48.583Z,100052.33
2019-05-16T13:20:21.009Z,100061.27
2019-05-16T13:22:53.312Z,100061.08
2019-05-16T13:25:36.994Z,100061.14
2019-05-16T13:28:08.303Z,100066.58
2019-05-16T13:30:41.473Z,100059.73
2019-05-16T13:33:13.847Z,100063.22
2019-05-16T13:35:47.245Z,100052.11
2019-05-16T13:38:19.960Z,100046.92
2019-05-16T13:40:52.419Z,100056.08
2019-05-16T13:43:26.883Z,100044.84
2019-05-16T13:45:58.640Z,100047.25
2019-05-16T13:48:31.021Z,100047.01
2019-05-16T13:51:14.372Z,100041.82
2019-05-16T13:53:37.373Z,100035.08
2019-05-16T13:56:12.943Z,100029.11
2019-05-16T13:58:42.159Z,100030.67
2019-05-16T14:01:17.210Z,100028.02
2019-05-16T14:03:49.289Z,100024.14
2019-05-16T14:06:22.393Z,100024.14
2019-05-16T14:08:53.309Z,100023.28
2019-05-16T14:11:25.199Z,100015.34
2019-05-16T14:13:56.435Z,100013.14
2019-05-16T14:16:28.460Z,100017.64
2019-05-16T14:19:00.658Z,100003.88
2019-05-16T14:21:32.880Z,99995.16
2019-05-16T14:24:08.500Z,100000.37
2019-05-16T14:26:40.063Z,99994.88
2019-05-16T14:29:17.672Z,99989.88
2019-05-16T14:31:52.810Z,99995.11
2019-05-16T14:34:28.157Z,99993.13
2019-05-16T14:37:01.398Z,99986.73
2019-05-16T14:39:32.478Z,99990.72
2019-05-16T14:42:04.379Z,99982.17
2019-05-16T14:44:57.576Z,99988.84
2019-05-16T14:47:09.450Z,99993.70
2019-05-16T14:49:40.599Z,99988.42
2019-05-16T14:52:13.032Z,99985.03
2019-05-16T14:54:46.943Z,99989.30
2019-05-16T14:57:18.729Z,99980.05
2019-05-16T14:59:50.689Z,99977.30
2019-05-16T15:02:21.747Z,99977.31
2019-05-16T15:04:53.642Z,99978.45
2019-05-16T15:07:27.663Z,99972.44
2019-05-16T15:10:00.473Z,99972.74
2019-05-16T15:12:32.889Z,99970.89
2019-05-16T15:15:17.044Z,99969.55
2019-05-16T15:17:41.709Z,99966.56
2019-05-16T15:20:18.297Z,99962.67
2019-05-16T15:22:50.703Z,99962.22
2019-05-16T15:25:23.289Z,99964.44
2019-05-16T15:27:58.019Z,99963.58
2019-05-16T15:30:31.219Z,99961.23
2019-05-16T15:33:19.836Z,99955.98
2019-05-16T15:35:48.978Z,99959.12
2019-05-16T15:38:21.306Z,99954.25
2019-05-16T15:40:53.450Z,99948.77
2019-05-16T15:43:27.470Z,99948.84
2019-05-16T15:46:01.112Z,99946.89
2019-05-16T15:48:34.020Z,99947.12
2019-05-16T15:51:08.983Z,99943.15
2019-05-16T15:53:41.819Z,99937.97
2019-05-16T15:56:14.499Z,99933.18
2019-05-16T15:58:46.930Z,99929.50
2019-05-16T16:01:19.709Z,99920.55
2019-05-16T16:03:51.894Z,99921.71
2019-05-16T16:06:27.500Z,99917.39
2019-05-16T16:08:58.952Z,99913.30
2019-05-16T16:11:31.185Z,99906.67
2019-05-16T16:14:06.948Z,99908.42
2019-05-16T16:16:38.512Z,99898.39
2019-05-16T16:19:10.737Z,99901.57
2019-05-16T16:21:42.848Z,99902.33
2019-05-16T16:24:18.628Z,99902.58
2019-05-16T16:26:50.716Z,99898.02
2019-05-16T16:29:22.838Z,99898.30
2019-05-16T16:31:56.904Z,99905.45
2019-05-16T16:34:29.877Z,99901.23
2019-05-16T16:37:02.938Z,99898.22
2019-05-16T16:39:37.750Z,99900.75
2019-05-16T16:42:12.911Z,99905.72
2019-05-16T16:44:52.354Z,99908.48
2019-05-16T16:47:26.956Z,99905.70
2019-05-16T16:49:59.639Z,99904.38
2019-05-16T16:52:32.109Z,99901.72
2019-05-16T16:55:07.205Z,99898.58
2019-05-16T16:57:38.824Z,99893.41
2019-05-16T17:00:12.021Z,99899.05
2019-05-16T17:02:59.396Z,99898.57
2019-05-16T17:05:19.109Z,99901.70
2019-05-16T17:07:51.189Z,99897.00
2019-05-16T17:10:22.307Z,99900.60
2019-05-16T17:12:54.289Z,99897.55
2019-05-16T17:15:27.208Z,99896.72
2019-05-16T17:17:59.120Z,99891.39
2019-05-16T17:20:31.220Z,99894.87
2019-05-16T17:23:02.307Z,99887.89
2019-05-16T17:25:36.677Z,99882.39
2019-05-16T17:28:08.849Z,99876.73
2019-05-16T17:30:41.188Z,99876.70
2019-05-16T17:33:13.599Z,99882.38
2019-05-16T17:35:48.315Z,99877.75
2019-05-16T17:38:19.369Z,99884.14
2019-05-16T17:40:51.667Z,99882.31
2019-05-16T17:43:23.831Z,99882.92
2019-05-16T17:45:57.528Z,99880.02
2019-05-16T17:48:30.651Z,99878.66
2019-05-16T17:51:05.737Z,99886.83
2019-05-16T17:53:39.297Z,99880.45
2019-05-16T17:56:16.898Z,99884.53
2019-05-16T17:58:51.083Z,99878.73
2019-05-16T18:01:24.130Z,99881.85
2019-05-16T18:03:57.365Z,99880.06
2019-05-16T18:06:30.469Z,99885.36
2019-05-16T18:09:06.604Z,99886.90
2019-05-16T18:11:40.139Z,99882.42
2019-05-16T18:14:17.880Z,99878.41
2019-05-16T18:16:58.545Z,99880.80
2019-05-16T18:19:29.049Z,99882.38
2019-05-16T18:22:03.719Z,99879.33
2019-05-16T18:24:41.659Z,99880.90
2019-05-16T18:27:14.524Z,99878.25
2019-05-16T18:29:52.727Z,99876.42
2019-05-16T18:32:27.449Z,99884.94
2019-05-16T18:35:02.052Z,99888.66
2019-05-16T18:37:35.490Z,99885.14
2019-05-16T18:40:09.739Z,99890.28
2019-05-16T18:42:42.456Z,99891.45
2019-05-16T18:45:17.169Z,99894.78
2019-05-16T18:47:52.759Z,99892.55
2019-05-16T18:50:29.945Z,99892.63
2019-05-16T18:53:03.657Z,99885.14
2019-05-16T18:55:37.038Z,99891.00
2019-05-16T18:58:11.460Z,99889.16
2019-05-16T19:00:43.911Z,99900.55
2019-05-16T19:03:16.729Z,99891.12
2019-05-16T19:05:50.778Z,99890.14
2019-05-16T19:08:23.099Z,99893.35
2019-05-16T19:10:56.893Z,99890.81
2019-05-16T19:13:30.869Z,99891.97
2019-05-16T19:16:06.260Z,99895.66
2019-05-16T19:18:38.111Z,99891.00
2019-05-16T19:21:09.387Z,99894.27
2019-05-16T19:23:41.850Z,99889.02
2019-05-16T19:26:17.269Z,99892.63
2019-05-16T19:28:57.116Z,99889.98
2019-05-16T19:31:31.598Z,99895.09
2019-05-16T19:34:07.095Z,99890.80
2019-05-16T19:36:39.828Z,99880.81
2019-05-16T19:39:13.750Z,99886.83
2019-05-16T19:41:47.010Z,99887.42
2019-05-16T19:44:20.609Z,99883.66
2019-05-16T19:46:54.359Z,99887.36
2019-05-16T19:49:27.645Z,99886.89
2019-05-16T19:51:58.367Z,99886.13
2019-05-16T19:54:31.519Z,99884.24
2019-05-16T19:57:03.829Z,99883.25
2019-05-16T19:59:36.686Z,99878.42
2019-05-16T20:02:10.542Z,99872.97
2019-05-16T20:04:42.950Z,99868.27
2019-05-16T20:07:16.812Z,99872.60
2019-05-16T20:09:50.119Z,99869.77
2019-05-16T20:12:22.418Z,99862.11
2019-05-16T20:15:06.851Z,99863.33
2019-05-16T20:17:27.438Z,99856.92
2019-05-16T20:19:59.778Z,99853.15
2019-05-16T20:22:30.717Z,99851.09
2019-05-16T20:25:03.599Z,99849.88
2019-05-16T20:27:36.713Z,99846.01
2019-05-16T20:30:10.606Z,99845.09
2019-05-16T20:32:44.159Z,99843.77
2019-05-16T20:35:17.487Z,99837.03
2019-05-16T20:37:50.149Z,99839.84
2019-05-16T20:40:22.871Z,99844.66
2019-05-16T20:42:56.405Z,99841.06
2019-05-16T20:45:28.669Z,99837.95
2019-05-16T20:48:11.110Z,99834.45
2019-05-16T20:50:34.549Z,99838.42
2019-05-16T20:53:07.497Z,99830.48
2019-05-16T20:55:40.796Z,99826.98
2019-05-16T20:58:16.388Z,99830.69
2019-05-16T21:00:49.771Z,99829.09
2019-05-16T21:03:23.268Z,99829.59
2019-05-16T21:05:57.880Z,99822.98
2019-05-16T21:08:28.319Z,99824.77
2019-05-16T21:10:59.637Z,99820.91
2019-05-16T21:13:31.799Z,99829.59
2019-05-16T21:16:04.019Z,99824.30
2019-05-16T21:18:37.675Z,99820.70
2019-05-16T21:21:10.379Z,99817.11
2019-05-16T21:23:42.918Z,99818.43
2019-05-16T21:26:15.449Z,99810.14
2019-05-16T21:28:51.035Z,99813.73
2019-05-16T21:31:23.900Z,99816.94
2019-05-16T21:33:56.582Z,99816.94
2019-05-16T21:36:29.093Z,99814.30
2019-05-16T21:39:02.689Z,99812.61
2019-05-16T21:41:36.664Z,99803.73
2019-05-16T21:44:08.948Z,99796.30
2019-05-16T21:46:39.867Z,99790.75
2019-05-16T21:49:12.236Z,99787.70
2019-05-16T21:51:46.427Z,99790.58
2019-05-16T21:54:18.170Z,99790.08
2019-05-16T21:56:49.457Z,99798.50
2019-05-16T21:59:21.741Z,99802.47
2019-05-16T22:01:56.470Z,99806.16
2019-05-16T22:04:29.779Z,99805.21
2019-05-16T22:07:02.029Z,99798.50
2019-05-16T22:09:37.016Z,99793.22
2019-05-16T22:12:12.239Z,99797.35
2019-05-16T22:14:50.829Z,99797.72
2019-05-16T22:17:27.464Z,99800.26
2019-05-16T22:20:00.229Z,99790.16
2019-05-16T22:22:31.447Z,99787.97
2019-05-16T22:25:03.401Z,99786.19
2019-05-16T22:27:34.787Z,99782.22
2019-05-16T22:30:10.709Z,99775.98
2019-05-16T22:32:42.629Z,99763.16
2019-05-16T22:35:16.823Z,99758.61
2019-05-16T22:37:55.484Z,99758.14
2019-05-16T22:40:26.537Z,99755.77
2019-05-16T22:42:58.329Z,99752.16
2019-05-16T22:45:30.431Z,99749.98
2019-05-16T22:48:02.489Z,99741.59
2019-05-16T22:50:36.462Z,99744.23
2019-05-16T22:53:08.672Z,99734.62
2019-05-16T22:55:40.660Z,99729.90
2019-05-16T22:58:12.832Z,99740.47
2019-05-16T23:00:43.999Z,99731.22
2019-05-16T23:03:17.363Z,99729.53
2019-05-16T23:05:50.684Z,99722.14
2019-05-16T23:08:21.565Z,99729.17
2019-05-16T23:10:53.410Z,99725.31
2019-05-16T23:13:26.396Z,99724.45
2019-05-16T23:15:58.860Z,99711.84
2019-05-16T23:18:31.908Z,99717.48
2019-05-16T23:21:06.215Z,99710.67
2019-05-16T23:23:37.827Z,99712.00
2019-05-16T23:26:10.029Z,99709.09
2019-05-16T23:28:42.088Z,99705.95
2019-05-16T23:31:16.492Z,99705.23
2019-05-16T23:33:47.708Z,99703.81
2019-05-16T23:36:20.028Z,99701.06
2019-05-16T23:38:51.067Z,99696.14
2019-05-16T23:41:22.829Z,99698.78
2019-05-16T23:43:56.673Z,99703.31
2019-05-16T23:46:28.778Z,99702.75
2019-05-16T23:49:00.849Z,99696.87
2019-05-16T23:51:32.849Z,99698.19
2019-05-16T23:54:06.693Z,99707.80
2019-05-16T23:56:38.649Z,99711.04
2019-05-16T23:59:10.607Z,99711.41
